Time;durP1;ratioP1;P1;durP2;ratioP2;P2;SDS_P1;SDS_P2;PMS_P1;PMS_P2;Temp;Humidity;BMP_temperature;BMP_pressure;BME280_temperature;BME280_humidity;BME280_pressure;Samples;Min_cycle;Max_cycle;Signal;HPM_P1;HPM_P2
2021/11/01 00:00:32;;;;;;;14.45;2.17;;;;;;;-142.75;100.00;75993.56;5032710;28;20954;-70
2021/11/01 00:02:58;;;;;;;12.52;1.65;;;;;;;-142.75;100.00;75979.78;5041595;28;20033;-70
2021/11/01 00:05:25;;;;;;;19.15;2.55;;;;;;;-142.75;100.00;75985.69;5045256;28;20039;-70
2021/11/01 00:07:50;;;;;;;18.95;2.53;;;;;;;-142.75;100.00;75987.66;5047713;28;20052;-69
2021/11/01 00:10:16;;;;;;;13.35;2.13;;;;;;;-142.75;100.00;75989.63;5020429;28;20555;-71
2021/11/01 00:12:41;;;;;;;13.40;2.55;;;;;;;-142.75;100.00;75987.66;5030845;28;20155;-71
2021/11/01 00:15:08;;;;;;;18.77;2.25;;;;;;;-142.75;100.00;75987.66;5041760;28;20025;-72
2021/11/01 00:17:34;;;;;;;19.63;2.83;;;;;;;-142.75;100.00;75991.59;5029428;28;20025;-70
2021/11/01 00:19:59;;;;;;;21.23;3.50;;;;;;;-142.75;100.00;75989.63;5030949;28;20155;-73
2021/11/01 00:22:24;;;;;;;11.50;2.00;;;;;;;-142.75;100.00;75983.72;5044399;28;20029;-69
2021/11/01 00:24:50;;;;;;;10.10;2.17;;;;;;;-142.75;100.00;76007.34;5018557;28;20271;-70
2021/11/01 00:27:16;;;;;;;14.88;2.30;;;;;;;-142.75;100.00;76007.34;5047263;28;20053;-70
2021/11/01 00:29:42;;;;;;;;;;;;;;;-142.75;100.00;75989.63;5047184;28;20031;-69
2021/11/01 00:32:07;;;;;;;19.23;2.28;;;;;;;-142.75;100.00;75997.50;5047073;28;19920;-70
2021/11/01 00:34:34;;;;;;;15.13;2.03;;;;;;;-142.75;100.00;75997.50;5045445;28;20017;-70
2021/11/01 00:36:59;;;;;;;17.05;2.30;;;;;;;-142.75;100.00;75985.69;5017536;28;20029;-70
2021/11/01 00:39:24;;;;;;;13.25;1.60;;;;;;;-142.75;100.00;75991.59;5009635;28;20044;-70
2021/11/01 00:41:50;;;;;;;15.38;1.45;;;;;;;-142.75;100.00;76001.44;5026816;28;20049;-69
2021/11/01 00:44:15;;;;;;;10.05;2.22;;;;;;;-142.75;100.00;75987.66;5029556;28;20083;-71
2021/11/01 00:46:41;;;;;;;9.48;1.45;;;;;;;-142.75;100.00;75987.66;5032236;28;20465;-68
2021/11/01 00:49:06;;;;;;;14.48;2.08;;;;;;;-142.75;100.00;75983.72;5013501;28;20028;-70
2021/11/01 00:51:37;;;;;;;13.43;2.15;;;;;;;-142.75;100.00;75999.47;5012784;28;20028;-71
2021/11/01 00:54:03;;;;;;;11.75;1.77;;;;;;;-142.75;100.00;75999.47;5048184;28;20029;-70
2021/11/01 00:56:29;;;;;;;18.38;2.25;;;;;;;-142.75;100.00;75989.63;5032376;28;20032;-70
2021/11/01 00:58:54;;;;;;;12.73;2.17;;;;;;;-142.75;100.00;75995.53;5013526;28;20060;-70
2021/11/01 01:01:19;;;;;;;10.23;1.83;;;;;;;-142.75;100.00;75983.72;5045693;28;20032;-70
2021/11/01 01:03:45;;;;;;;15.85;1.90;;;;;;;-142.75;100.00;75997.50;5051198;28;20117;-71
2021/11/01 01:06:11;;;;;;;11.95;1.60;;;;;;;-142.75;100.00;75985.69;5032713;28;20482;-69
2021/11/01 01:08:37;;;;;;;9.95;1.42;;;;;;;-142.75;100.00;75995.53;5051257;28;20025;-70
2021/11/01 01:11:03;;;;;;;21.40;1.90;;;;;;;-142.75;100.00;75993.56;5032376;28;20390;-70
2021/11/01 01:13:34;;;;;;;10.02;1.58;;;;;;;-142.75;100.00;75989.63;5051501;28;20032;-71
2021/11/01 01:16:10;;;;;;;11.85;2.10;;;;;;;-142.75;100.00;75993.56;5052318;28;20024;-71
2021/11/01 01:18:38;;;;;;;7.75;2.10;;;;;;;-142.75;100.00;75983.72;5031393;28;20100;-71
2021/11/01 01:23:49;;;;;;;15.93;1.67;;;;;;;-142.75;100.00;76005.38;5034539;28;20033;-69
2021/11/01 01:26:15;;;;;;;12.35;1.63;;;;;;;-142.75;100.00;76003.41;5030312;28;20401;-70
2021/11/01 01:28:42;;;;;;;11.57;1.65;;;;;;;-142.75;100.00;75991.59;5050645;28;20082;-71
2021/11/01 01:31:07;;;;;;;14.65;2.58;;;;;;;-142.75;100.00;75987.66;5049337;28;20036;-68
2021/11/01 01:33:33;;;;;;;13.32;1.85;;;;;;;-142.75;100.00;75995.53;5035933;28;20414;-70
2021/11/01 01:35:59;;;;;;;7.03;1.13;;;;;;;-142.75;100.00;76015.22;5012671;28;20387;-72
2021/11/01 01:38:26;;;;;;;8.77;1.30;;;;;;;-142.75;100.00;76003.41;5036019;28;20116;-70
2021/11/01 01:40:53;;;;;;;8.05;1.92;;;;;;;-142.75;100.00;75999.47;5029612;28;20083;-70
2021/11/01 01:43:19;;;;;;;10.30;1.23;;;;;;;-142.75;100.00;76007.34;5030214;28;20087;-68
2021/11/01 01:45:44;;;;;;;11.52;1.83;;;;;;;-142.75;100.00;75987.66;5040690;28;20467;-71
2021/11/01 01:48:10;;;;;;;11.25;1.55;;;;;;;-142.75;100.00;76001.44;5022768;28;20454;-72
2021/11/01 01:50:35;;;;;;;;;;;;;;;-142.75;100.00;75993.56;5016036;28;20535;-72
2021/11/01 01:53:01;;;;;;;12.30;2.15;;;;;;;-142.75;100.00;75997.50;5032881;28;19920;-70
2021/11/01 01:55:26;;;;;;;10.50;1.58;;;;;;;-142.75;100.00;76005.38;5028595;28;20071;-72
2021/11/01 01:57:52;;;;;;;13.60;1.60;;;;;;;-142.75;100.00;75995.53;5027780;28;20053;-70
2021/11/01 02:03:04;;;;;;;14.55;1.85;;;;;;;-142.75;100.00;76007.34;5050550;28;20094;-69
2021/11/01 02:05:53;;;;;;;8.77;1.42;;;;;;;-142.75;100.00;76001.44;5032231;28;20025;-70
2021/11/01 02:08:19;;;;;;;9.35;1.27;;;;;;;-142.75;100.00;76005.38;5050236;28;20078;-69
2021/11/01 02:10:56;;;;;;;10.38;1.92;;;;;;;-142.75;100.00;76015.22;5031904;28;20478;-70
2021/11/01 02:13:26;;;;;;;9.75;1.90;;;;;;;-142.75;100.00;76015.22;5050221;28;20032;-69
2021/11/01 02:15:54;;;;;;;13.27;1.90;;;;;;;-142.75;100.00;76015.22;5033612;28;20025;-70
2021/11/01 02:18:23;;;;;;;9.82;1.60;;;;;;;-142.75;100.00;76027.03;5030367;28;20076;-71
2021/11/01 02:21:01;;;;;;;14.63;1.92;;;;;;;-142.75;100.00;76023.09;5028535;28;20029;-72
2021/11/01 02:23:41;;;;;;;9.35;1.98;;;;;;;-142.75;100.00;76038.84;4995942;28;20084;-69
2021/11/01 02:26:09;;;;;;;14.70;1.73;;;;;;;-142.75;100.00;76050.66;5047892;28;20029;-71
2021/11/01 02:28:38;;;;;;;11.27;1.65;;;;;;;-142.75;100.00;76046.72;5049934;28;20109;-72
2021/11/01 02:31:12;;;;;;;13.35;1.83;;;;;;;-142.75;100.00;76034.91;5021779;28;20068;-70
2021/11/01 02:33:41;;;;;;;12.80;2.03;;;;;;;-142.75;100.00;76050.66;5046885;28;20056;-71
2021/11/01 02:36:06;;;;;;;10.88;1.63;;;;;;;-142.75;100.00;76042.78;5049749;28;20033;-71
2021/11/01 02:38:33;;;;;;;14.68;1.75;;;;;;;-142.75;100.00;76054.59;5031968;28;20444;-70
2021/11/01 02:41:04;;;;;;;12.10;1.80;;;;;;;-142.75;100.00;76058.53;5030081;28;20646;-70
2021/11/01 02:43:30;;;;;;;6.18;1.50;;;;;;;-142.75;100.00;76058.53;5044505;28;20031;-71
2021/11/01 02:45:58;;;;;;;14.63;1.90;;;;;;;-142.75;100.00;76060.50;5050272;28;20032;-70
2021/11/01 02:48:24;;;;;;;7.72;1.45;;;;;;;-142.75;100.00;76058.53;5031581;28;20025;-71
2021/11/01 02:50:49;;;;;;;6.95;1.60;;;;;;;-142.75;100.00;76062.47;5048524;28;20040;-68
2021/11/01 02:53:15;;;;;;;11.52;1.70;;;;;;;-142.75;100.00;76056.56;5049470;28;20095;-71
2021/11/01 02:55:40;;;;;;;10.05;1.98;;;;;;;-142.75;100.00;76082.13;5040322;28;20029;-70
2021/11/01 02:58:05;;;;;;;7.78;1.42;;;;;;;-142.75;100.00;76050.66;5029546;28;20461;-71
2021/11/01 03:00:32;;;;;;;8.55;1.30;;;;;;;-142.75;100.00;76058.53;5010834;28;20087;-71
2021/11/01 03:02:57;;;;;;;;;;;;;;;-142.75;100.00;76042.78;5029809;28;20084;-71
2021/11/01 03:07:56;;;;;;;6.15;1.35;;;;;;;-142.75;100.00;76050.66;4984211;28;20470;-66
2021/11/01 03:10:23;;;;;;;11.85;1.70;;;;;;;-142.75;100.00;76042.78;4971294;28;20034;-67
2021/11/01 03:12:50;;;;;;;12.02;1.60;;;;;;;-142.75;100.00;76038.84;4989429;28;20041;-67
2021/11/01 03:15:21;;;;;;;11.07;2.03;;;;;;;-142.75;100.00;76056.56;4989691;28;20022;-67
2021/11/01 03:17:59;;;;;;;9.93;1.70;;;;;;;-142.75;100.00;76042.78;4989673;28;20022;-67
2021/11/01 03:20:38;;;;;;;10.82;1.80;;;;;;;-142.75;100.00;76046.72;4988572;28;20030;-66
2021/11/01 03:23:17;;;;;;;11.68;2.00;;;;;;;-142.75;100.00;76048.69;4988880;28;20049;-67
2021/11/01 03:25:55;;;;;;;11.57;1.80;;;;;;;-142.75;100.00;76058.53;4975530;28;20379;-67
2021/11/01 03:28:22;;;;;;;9.35;1.67;;;;;;;-142.75;100.00;76050.66;5008423;28;20141;-67
2021/11/01 03:30:49;;;;;;;12.18;2.17;;;;;;;-142.75;100.00;76048.69;5007863;28;20104;-67
2021/11/01 03:33:16;;;;;;;12.85;2.03;;;;;;;-142.75;100.00;76044.75;5008663;28;20109;-66
2021/11/01 03:35:44;;;;;;;9.02;1.73;;;;;;;-142.75;100.00;76038.84;4990738;28;20037;-66
2021/11/01 03:38:12;;;;;;;19.15;2.65;;;;;;;-142.75;100.00;76042.78;5008314;28;20029;-67
2021/11/01 03:40:40;;;;;;;10.38;2.17;;;;;;;-142.75;100.00;76050.66;4990136;28;20412;-66
2021/11/01 03:43:07;;;;;;;10.45;1.90;;;;;;;-142.75;100.00;76036.88;5008180;28;20113;-67
2021/11/01 03:45:36;;;;;;;7.35;1.52;;;;;;;-142.75;100.00;76046.72;4994052;28;20022;-66
2021/11/01 03:48:06;;;;;;;7.63;1.70;;;;;;;-142.75;100.00;76038.84;4988819;28;20026;-67
2021/11/01 03:50:39;;;;;;;12.85;2.03;;;;;;;-142.75;100.00;76050.66;4987893;28;20034;-67
2021/11/01 03:53:05;;;;;;;12.85;2.53;;;;;;;-142.75;100.00;76042.78;4988695;28;20113;-66
2021/11/01 03:55:31;;;;;;;10.00;2.03;;;;;;;-142.75;100.00;76048.69;4988348;28;20703;-67
2021/11/01 03:57:58;;;;;;;9.38;2.08;;;;;;;-142.75;100.00;76054.59;4971064;28;20088;-66
2021/11/01 04:00:27;;;;;;;11.15;1.63;;;;;;;-142.75;100.00;76068.38;4970246;28;20026;-67
2021/11/01 04:02:52;;;;;;;16.38;3.20;;;;;;;-142.75;100.00;76066.41;4989394;28;20088;-66
2021/11/01 04:05:18;;;;;;;12.93;1.55;;;;;;;-142.75;100.00;76054.59;4999887;28;20397;-66
2021/11/01 04:07:44;;;;;;;11.82;2.10;;;;;;;-142.75;100.00;76048.69;5008024;28;20029;-67
2021/11/01 04:10:09;;;;;;;13.70;2.22;;;;;;;-142.75;100.00;76046.72;5006874;28;20021;-67
2021/11/01 04:12:36;;;;;;;13.90;2.40;;;;;;;-142.75;100.00;76050.66;5007850;28;20390;-67
2021/11/01 04:15:07;;;;;;;17.05;2.30;;;;;;;-142.75;100.00;76054.59;5007622;28;20424;-67
2021/11/01 04:22:50;;;;;;;10.40;1.88;;;;;;;-142.75;100.00;76042.78;5007672;28;20531;-67
2021/11/01 04:25:17;;;;;;;13.68;2.30;;;;;;;-142.75;100.00;76050.66;5007466;28;20025;-67
2021/11/01 04:27:42;;;;;;;14.95;1.80;;;;;;;-142.75;100.00;76056.56;5007783;28;20018;-67
2021/11/01 04:30:08;;;;;;;12.30;1.85;;;;;;;-142.75;100.00;76060.50;5006825;28;21018;-67
2021/11/01 04:32:39;;;;;;;12.93;1.88;;;;;;;-142.75;100.00;76062.47;5007000;28;20030;-67
2021/11/01 04:35:12;;;;;;;13.65;1.60;;;;;;;-142.75;100.00;76060.50;4987038;28;20030;-67
2021/11/01 04:37:39;;;;;;;14.35;2.10;;;;;;;-142.75;100.00;76070.34;4991491;28;20091;-66
2021/11/01 04:40:18;;;;;;;10.43;1.52;;;;;;;-142.75;100.00;76078.19;5006703;28;20030;-66
2021/11/01 04:53:42;;;;;;;10.45;2.03;;;;;;;-142.75;100.00;76090.00;5004184;28;20103;-67
2021/11/01 04:56:08;;;;;;;15.50;2.00;;;;;;;-142.75;100.00;76090.00;4986682;28;20410;-66
2021/11/01 04:58:34;;;;;;;14.35;1.98;;;;;;;-142.75;100.00;76086.06;4986158;28;20492;-67
2021/11/01 05:01:00;;;;;;;15.35;2.13;;;;;;;-142.75;100.00;76088.03;4986906;28;20109;-67
2021/11/01 05:03:38;;;;;;;11.90;1.85;;;;;;;-142.75;100.00;76097.88;4987981;28;20037;-66
2021/11/01 05:06:04;;;;;;;9.73;1.73;;;;;;;-142.75;100.00;76095.91;4987757;28;20026;-66
2021/11/01 05:08:39;;;;;;;;;;;;;;;-142.75;100.00;76105.75;4971011;28;20033;-67
2021/11/01 05:11:09;;;;;;;12.50;2.25;;;;;;;-142.75;100.00;76097.88;4987085;28;20306;-67
2021/11/01 05:13:37;;;;;;;9.60;1.63;;;;;;;-142.75;100.00;76082.13;4987657;28;20030;-67
2021/11/01 05:18:40;;;;;;;9.90;1.87;;;;;;;-142.75;100.00;76090.00;4987690;28;20042;-67
2021/11/01 05:21:20;;;;;;;11.23;1.83;;;;;;;-142.75;100.00;76076.22;4986955;28;20026;-67
2021/11/01 05:24:00;;;;;;;12.55;1.80;;;;;;;-142.75;100.00;76086.06;4989789;28;20033;-66
2021/11/01 05:26:55;;;;;;;14.98;1.73;;;;;;;-142.75;100.00;76090.00;4990786;28;20480;-67
2021/11/01 05:29:20;;;;;;;9.38;1.65;;;;;;;-142.75;100.00;76074.25;4987444;28;20022;-67
2021/11/01 05:31:54;;;;;;;12.90;2.25;;;;;;;-142.75;100.00;76070.34;4990732;28;20396;-67
2021/11/01 05:34:20;;;;;;;9.32;1.63;;;;;;;-142.75;100.00;76074.25;4991151;28;20141;-66
2021/11/01 05:36:45;;;;;;;10.43;1.40;;;;;;;-142.75;100.00;76066.41;4991427;28;20101;-67
2021/11/01 05:39:11;;;;;;;11.30;2.03;;;;;;;-142.75;100.00;76080.16;4991083;28;20105;-67
2021/11/01 05:41:37;;;;;;;8.68;1.77;;;;;;;-142.75;100.00;76093.94;4990659;28;20073;-66
2021/11/01 05:44:03;;;;;;;10.27;1.92;;;;;;;-142.75;100.00;76086.06;4990888;28;20464;-66
2021/11/01 05:46:37;;;;;;;8.50;1.27;;;;;;;-142.75;100.00;76097.88;4991284;28;20040;-67
2021/11/01 05:49:05;;;;;;;12.27;1.95;;;;;;;-142.75;100.00;76101.81;4989645;28;20607;-67
2021/11/01 05:51:31;;;;;;;10.93;1.80;;;;;;;-142.75;100.00;76101.81;5008704;28;20034;-67
2021/11/01 05:54:00;;;;;;;13.88;2.30;;;;;;;-142.75;100.00;76109.69;5010299;28;20099;-66
2021/11/01 06:02:09;;;;;;;13.65;1.60;;;;;;;-142.75;100.00;76099.84;4990536;28;20570;-66
2021/11/01 06:15:06;;;;;;;11.77;1.80;;;;;;;-142.75;100.00;76093.94;4997911;28;20044;-67
2021/11/01 06:17:32;;;;;;;14.45;2.65;;;;;;;-142.75;100.00;76113.63;5010402;28;20403;-66
2021/11/01 06:19:58;;;;;;;12.02;1.60;;;;;;;-142.75;100.00;76093.94;5009140;28;20025;-66
2021/11/01 06:22:24;;;;;;;7.47;1.60;;;;;;;-142.75;100.00;76099.84;4994434;28;20034;-66
2021/11/01 06:25:02;;;;;;;11.20;1.88;;;;;;;-142.75;100.00;76105.75;4990189;28;20025;-66
2021/11/01 06:27:28;;;;;;;12.13;1.67;;;;;;;-142.75;100.00;76117.56;4992779;28;20088;-66
2021/11/01 07:14:39;;;;;;;10.68;2.20;;;;;;;-142.75;100.00;76137.25;4988972;28;20041;-68
2021/11/01 07:17:19;;;;;;;9.23;2.00;;;;;;;-142.75;100.00;76125.44;4988981;28;20045;-67
2021/11/01 07:19:58;;;;;;;22.33;2.90;;;;;;;-142.75;100.00;76109.69;4988447;28;20090;-67
2021/11/01 07:22:53;;;;;;;14.43;2.00;;;;;;;-142.75;100.00;76090.00;4988653;28;20038;-67
2021/11/01 07:30:56;;;;;;;11.50;1.80;;;;;;;-142.75;100.00;76042.78;4986571;28;20275;-68
2021/11/01 09:03:22;;;;;;;8.07;1.50;;;;;;;-142.75;90.84;75731.81;4988572;28;20092;-68
2021/11/01 09:10:02;;;;;;;6.43;1.50;;;;;;;-142.75;88.63;75601.91;4991983;28;20484;-68
2021/11/01 09:19:48;;;;;;;6.35;1.30;;;;;;;-142.75;86.92;75723.94;4991902;28;20231;-68
2021/11/01 09:24:41;;;;;;;5.82;1.33;;;;;;;-142.75;88.51;75704.25;4991921;28;20038;-67
2021/11/01 09:27:08;;;;;;;7.13;1.40;;;;;;;-142.75;88.72;75617.66;4974133;28;20100;-68
2021/11/01 09:42:53;;;;;;;5.32;0.88;;;;;;;-142.75;76.91;75576.34;4991792;28;20044;-68
2021/11/01 09:45:21;;;;;;;6.43;0.95;;;;;;;-142.75;78.52;75560.59;4991902;28;20030;-67
2021/11/01 09:47:48;;;;;;;7.45;1.17;;;;;;;-142.75;77.34;75517.28;4991459;28;20026;-68
2021/11/01 09:50:17;;;;;;;3.17;0.90;;;;;;;-142.75;77.62;75529.09;4990460;28;20026;-68
2021/11/01 09:52:45;;;;;;;7.60;0.70;;;;;;;-142.75;75.82;75531.06;4991429;28;20029;-68
2021/11/01 09:56:19;;;;;;;5.97;1.20;;;;;;;-142.75;75.48;75474.00;4990005;28;20034;-68
2021/11/01 10:00:53;;;;;;;4.90;1.05;;;;;;;-142.75;74.34;75432.69;4991621;28;20041;-68
2021/11/01 10:03:18;;;;;;;4.47;0.88;;;;;;;-142.75;73.15;75436.59;4990804;28;20484;-68
2021/11/01 10:05:55;;;;;;;8.55;1.13;;;;;;;-142.75;74.46;75454.31;4973958;28;20080;-68
2021/11/01 10:08:20;;;;;;;5.70;1.17;;;;;;;-142.75;73.50;75521.22;4991604;28;20058;-68
2021/11/01 10:10:45;;;;;;;7.88;1.10;;;;;;;-142.75;76.05;75521.22;4991235;28;20519;-67
2021/11/01 10:13:16;;;;;;;6.40;1.20;;;;;;;-142.75;74.87;75420.88;4974039;28;20542;-68
2021/11/01 10:18:26;;;;;;;3.03;1.05;;;;;;;-142.75;74.22;75531.06;4995647;28;20057;-67
2021/11/01 10:20:55;;;;;;;7.28;1.70;;;;;;;-142.75;75.67;75472.03;5010051;28;20030;-68
2021/11/01 10:23:26;;;;;;;6.82;1.08;;;;;;;-142.75;74.26;75470.06;5010625;28;20022;-68
2021/11/01 10:26:11;;;;;;;6.22;1.10;;;;;;;-142.75;74.57;75460.22;4993135;28;20026;-69
2021/11/01 10:28:36;;;;;;;5.57;0.90;;;;;;;-142.75;73.46;75448.41;5011039;28;20113;-68
2021/11/01 10:31:11;;;;;;;4.05;1.00;;;;;;;-142.75;75.64;75497.63;5010323;28;20096;-68
2021/11/01 10:33:45;;;;;;;5.75;0.90;;;;;;;-142.75;75.60;75487.78;5011582;28;20029;-68
2021/11/01 10:36:31;;;;;;;7.78;1.42;;;;;;;-142.75;74.10;75470.06;5010927;28;20036;-68
2021/11/01 10:39:04;;;;;;;6.22;0.90;;;;;;;-142.75;72.74;75381.50;5011004;28;20029;-68
2021/11/01 10:45:03;;;;;;;9.40;1.65;;;;;;;-142.75;71.20;75448.41;5011380;28;20065;-68
2021/11/01 10:59:15;;;;;;;4.40;1.02;;;;;;;-142.75;74.72;75507.47;5010216;28;20092;-69
2021/11/01 11:12:25;;;;;;;5.50;1.02;;;;;;;-142.75;74.10;75440.53;5009807;28;20043;-68
2021/11/01 11:14:55;;;;;;;10.50;1.67;;;;;;;-142.75;73.92;75428.75;5010107;28;20050;-69
2021/11/01 11:26:17;;;;;;;6.85;0.90;;;;;;;-142.75;68.14;75304.75;5021629;28;20053;-71
2021/11/01 11:29:28;;;;;;;6.28;1.13;;;;;;;-142.75;67.13;75322.47;5021600;28;20410;-72
2021/11/01 11:43:40;;;;;;;5.68;1.33;;;;;;;-142.75;71.20;75452.34;5012586;28;20116;-73
2021/11/01 11:49:10;;;;;;;9.48;1.40;;;;;;;-142.75;70.49;75454.31;5023859;28;20044;-73
2021/11/01 11:51:37;;;;;;;4.53;1.30;;;;;;;-142.75;72.43;75523.19;5004164;28;20395;-72
2021/11/01 11:54:06;;;;;;;8.52;1.48;;;;;;;-142.75;73.19;75515.31;5019578;28;20026;-71
2021/11/01 11:56:34;;;;;;;7.10;1.23;;;;;;;-142.75;72.69;75475.97;5021825;28;20029;-72
2021/11/01 11:59:05;;;;;;;4.38;0.90;;;;;;;-142.75;72.86;75450.38;5021932;28;20025;-70
2021/11/01 12:01:36;;;;;;;3.78;1.00;;;;;;;-142.75;72.45;75483.84;5020364;28;20390;-72
2021/11/01 12:04:17;;;;;;;5.13;1.30;;;;;;;-142.75;71.37;75472.03;5021959;28;20087;-72
2021/11/01 12:06:53;;;;;;;5.60;1.02;;;;;;;-142.75;70.55;75479.91;5001147;28;20029;-74
2021/11/01 12:09:22;;;;;;;3.97;1.25;;;;;;;-142.75;70.91;75405.13;5018651;28;20041;-72
2021/11/01 12:12:51;;;;;;;5.93;1.00;;;;;;;-142.75;69.17;75436.59;4999596;28;20124;-72
2021/11/01 12:17:59;;;;;;;5.90;1.40;;;;;;;-142.75;69.17;75332.31;5021152;28;20052;-75
2021/11/01 12:20:24;;;;;;;3.70;1.10;;;;;;;-142.75;68.33;75350.03;5019950;28;20514;-74
2021/11/01 12:22:50;;;;;;;;;;;;;;;-142.75;69.04;75399.22;5017586;28;20487;-73
2021/11/01 12:25:19;;;;;;;6.47;0.90;;;;;;;-142.75;70.80;75434.66;5010625;28;20523;-72
2021/11/01 12:27:56;;;;;;;5.90;1.10;;;;;;;-142.75;70.10;75353.97;5020577;28;20088;-71
2021/11/01 12:30:24;;;;;;;3.97;1.00;;;;;;;-142.75;69.84;75334.28;5007359;28;20056;-71
2021/11/01 12:32:50;;;;;;;4.00;1.23;;;;;;;-142.75;68.46;75348.06;5012346;28;20105;-70
2021/11/01 12:35:26;;;;;;;4.53;0.93;;;;;;;-142.75;70.83;75477.94;5009207;28;20101;-72
2021/11/01 12:37:59;;;;;;;6.75;1.13;;;;;;;-142.75;71.81;75481.88;4997444;28;20032;-71
2021/11/01 12:40:31;;;;;;;4.65;1.10;;;;;;;-142.75;73.01;75479.91;4991465;28;20029;-72
2021/11/01 12:43:49;;;;;;;2.88;0.93;;;;;;;-142.75;70.12;75371.66;5011811;28;20513;-72
2021/11/01 12:57:27;;;;;;;5.68;1.38;;;;;;;-142.75;74.07;75491.72;5015683;28;20208;-72
2021/11/01 12:59:53;;;;;;;6.07;1.48;;;;;;;-142.75;74.54;75548.78;5028682;28;20087;-72
2021/11/01 13:02:34;;;;;;;6.22;1.67;;;;;;;-142.75;75.71;75493.69;5008038;28;20439;-71
2021/11/01 13:05:06;;;;;;;8.38;1.63;;;;;;;-142.75;75.63;75477.94;5027840;28;20009;-71
2021/11/01 13:10:35;;;;;;;10.23;1.67;;;;;;;-142.75;75.85;75462.19;5021293;28;20092;-71
2021/11/01 13:18:49;;;;;;;9.95;2.25;;;;;;;-142.75;79.72;75517.28;5018208;28;20091;-69
2021/11/01 13:21:23;;;;;;;8.70;1.50;;;;;;;-142.75;79.15;75568.47;5020034;28;20029;-71
2021/11/01 13:23:57;;;;;;;5.93;1.40;;;;;;;-142.75;81.65;75611.75;5014407;28;20022;-69
2021/11/01 13:26:35;;;;;;;10.00;1.73;;;;;;;-142.75;81.48;75643.25;5017351;28;20060;-70
2021/11/01 13:36:52;;;;;;;6.50;1.52;;;;;;;-142.75;86.92;75708.19;5020978;28;20061;-69
2021/11/01 13:39:28;;;;;;;10.77;1.70;;;;;;;-142.75;89.05;75712.13;5019767;28;20022;-70
2021/11/01 13:41:54;;;;;;;6.55;1.85;;;;;;;-142.75;91.33;75716.06;5019849;28;20542;-72
2021/11/01 13:44:21;;;;;;;;;;;;;;;-142.75;91.29;75702.28;4995962;28;20025;-71
2021/11/01 13:46:49;;;;;;;6.03;1.55;;;;;;;-142.75;90.34;75700.31;5019101;28;20345;-68
2021/11/01 13:49:16;;;;;;;4.93;1.65;;;;;;;-142.75;88.87;75696.38;4997753;28;20029;-71
2021/11/01 13:51:47;;;;;;;9.30;1.90;;;;;;;-142.75;90.35;75729.84;5005020;28;20029;-70
2021/11/01 13:54:29;;;;;;;9.02;1.75;;;;;;;-142.75;90.95;75735.75;5002756;28;20021;-70
2021/11/01 13:56:59;;;;;;;6.20;1.60;;;;;;;-142.75;91.49;75777.06;5016796;28;20106;-71
2021/11/01 13:59:36;;;;;;;11.60;1.48;;;;;;;-142.75;92.95;75771.16;5021236;28;20033;-69
2021/11/01 14:20:42;;;;;;;10.43;1.17;;;;;;;-142.75;92.59;75802.66;5025888;28;20402;-71
2021/11/01 14:27:02;;;;;;;7.05;1.23;;;;;;;-142.75;95.12;75818.41;5022534;28;20068;-70
2021/11/01 14:29:02;;;;;;;7.25;1.27;;;;;;;-142.75;96.07;75845.97;5014653;28;20451;-72
2021/11/01 14:31:58;;;;;;;6.82;1.40;;;;;;;-142.75;100.00;75855.81;5014804;28;20049;-70
2021/11/01 15:27:33;;;;;;;2.28;0.50;;;;;;;-142.75;100.00;76135.28;5021726;28;20171;-70
2021/11/01 15:38:13;;;;;;;3.22;0.60;;;;;;;-142.75;100.00;76139.22;4999137;28;20055;-70
2021/11/01 16:18:36;;;;;;;2.85;0.57;;;;;;;-142.75;100.00;76156.94;5016595;28;20396;-73
2021/11/01 16:21:02;;;;;;;1.15;0.50;;;;;;;-142.75;100.00;76176.63;5016266;28;20029;-69
2021/11/01 16:26:00;;;;;;;1.58;0.50;;;;;;;-142.75;100.00;76188.44;5019147;28;20052;-71
2021/11/01 16:28:29;;;;;;;6.72;1.35;;;;;;;-142.75;100.00;76204.16;5016839;28;20064;-72
2021/11/01 16:31:13;;;;;;;4.20;0.60;;;;;;;-142.75;100.00;76194.34;5019682;28;20536;-72
2021/11/01 16:33:46;;;;;;;1.95;0.70;;;;;;;-142.75;100.00;76198.28;5019176;28;20030;-72
2021/11/01 16:36:24;;;;;;;1.60;0.60;;;;;;;-142.75;100.00;76208.09;5023103;28;20398;-72
2021/11/01 16:38:52;;;;;;;1.10;0.60;;;;;;;-142.75;100.00;76206.13;5001450;28;20067;-72
2021/11/01 16:41:22;;;;;;;2.00;0.70;;;;;;;-142.75;100.00;76212.03;5021380;28;20026;-72
2021/11/01 16:43:49;;;;;;;3.57;0.97;;;;;;;-142.75;100.00;76225.81;5001952;28;20022;-72
2021/11/01 16:46:14;;;;;;;4.32;0.98;;;;;;;-142.75;100.00;76229.75;5018028;28;20087;-72
2021/11/01 16:48:43;;;;;;;3.90;0.80;;;;;;;-142.75;100.00;76257.31;5019925;28;20490;-72
2021/11/01 16:51:09;;;;;;;4.63;0.90;;;;;;;-142.75;100.00;76259.28;5000114;28;20484;-72
2021/11/01 16:53:35;;;;;;;1.20;0.60;;;;;;;-142.75;100.00;76263.22;5018992;28;20116;-73
2021/11/01 16:56:15;;;;;;;1.48;0.60;;;;;;;-142.75;100.00;76265.19;5014559;28;20044;-69
2021/11/01 16:58:45;;;;;;;3.45;0.73;;;;;;;-142.75;100.00;76275.03;5017781;28;20029;-72
2021/11/01 17:01:15;;;;;;;1.30;0.50;;;;;;;-142.75;100.00;76275.03;5002566;28;20491;-72
2021/11/01 17:03:51;;;;;;;3.53;0.95;;;;;;;-142.75;100.00;76267.16;5004516;28;20029;-72
2021/11/01 17:06:40;;;;;;;5.23;0.93;;;;;;;-142.75;100.00;76277.00;5018634;28;20095;-72
2021/11/01 17:09:22;;;;;;;2.30;0.90;;;;;;;-142.75;100.00;76263.22;5001924;28;20026;-72
2021/11/01 17:28:55;;;;;;;5.50;1.40;;;;;;;-142.75;100.00;76310.47;5012877;28;20038;-68
2021/11/01 17:34:41;;;;;;;2.30;1.23;;;;;;;-142.75;100.00;76310.47;5031690;28;20475;-68
2021/11/01 17:37:17;;;;;;;6.47;1.67;;;;;;;-142.75;100.00;76326.22;5012901;28;20467;-68
2021/11/01 18:38:07;;;;;;;7.63;3.20;;;;;;;-142.75;100.00;76353.78;4990332;28;20590;-69
2021/11/01 18:53:32;;;;;;;7.93;3.60;;;;;;;-142.75;100.00;76361.63;4990891;28;20058;-67
2021/11/01 18:55:59;;;;;;;6.97;3.47;;;;;;;-142.75;100.00;76361.63;4990866;28;20476;-68
2021/11/01 18:58:26;;;;;;;10.40;4.03;;;;;;;-142.75;100.00;76361.63;4990079;28;20033;-68
2021/11/01 19:00:56;;;;;;;7.73;3.40;;;;;;;-142.75;100.00;76367.53;4989752;28;20033;-68
2021/11/01 19:03:24;;;;;;;6.63;3.90;;;;;;;-142.75;100.00;76375.41;4990572;28;20053;-68
2021/11/01 19:11:32;;;;;;;8.43;3.63;;;;;;;-142.75;100.00;76387.22;4989972;28;20030;-68
2021/11/01 19:17:38;;;;;;;6.17;3.03;;;;;;;-142.75;100.00;76412.81;4990323;28;20041;-68
2021/11/01 20:04:10;;;;;;;;;;;;;;;-142.75;100.00;76397.06;4990064;28;20076;-68
2021/11/01 20:12:20;;;;;;;6.80;3.47;;;;;;;-142.75;100.00;76381.31;4997482;28;20048;-68
2021/11/01 20:15:04;;;;;;;7.07;3.30;;;;;;;-142.75;100.00;76393.13;5009402;28;20067;-68
2021/11/01 21:24:38;;;;;;;8.07;3.00;;;;;;;-142.75;100.00;76462.03;5011064;28;20091;-70
2021/11/01 21:27:03;;;;;;;7.13;3.30;;;;;;;-142.75;100.00;76467.94;5010108;28;20029;-69
2021/11/01 21:29:32;;;;;;;7.78;3.80;;;;;;;-142.75;100.00;76471.88;5011264;28;20450;-69
2021/11/01 21:31:58;;;;;;;10.53;3.33;;;;;;;-142.75;100.00;76460.06;5011030;28;20462;-69
2021/11/01 21:34:38;;;;;;;5.97;3.00;;;;;;;-142.75;100.00;76462.03;5010992;28;20526;-70
2021/11/01 21:37:08;;;;;;;7.60;3.90;;;;;;;-142.75;100.00;76456.13;4993332;28;20396;-69
2021/11/01 21:39:34;;;;;;;6.60;3.27;;;;;;;-142.75;100.00;76462.03;5011053;28;20038;-69
2021/11/01 21:42:00;;;;;;;6.90;3.37;;;;;;;-142.75;100.00;76462.03;5010171;28;20061;-67
2021/11/01 21:44:26;;;;;;;6.88;3.28;;;;;;;-142.75;100.00;76467.94;5011071;28;20395;-67
2021/11/01 21:46:52;;;;;;;8.45;3.67;;;;;;;-142.75;100.00;76454.16;4993672;28;20022;-67
2021/11/01 21:49:18;;;;;;;13.05;3.83;;;;;;;-142.75;100.00;76448.25;5010993;28;20033;-68
2021/11/01 21:51:44;;;;;;;9.45;4.18;;;;;;;-142.75;100.00;76462.03;5009721;28;20025;-68
2021/11/01 21:56:39;;;;;;;6.20;3.83;;;;;;;-142.75;100.00;76458.09;5011931;28;20045;-67
2021/11/01 22:10:32;;;;;;;7.40;3.73;;;;;;;-142.75;100.00;76460.06;4991467;28;20546;-67
2021/11/01 22:18:13;;;;;;;6.07;3.73;;;;;;;-142.75;100.00;76467.94;5010667;28;20038;-68